sensor_id;sensor_type;location;lat;lon;timestamp;P1;durP1;ratioP1;P2;durP2;ratioP2
5831;SDS011;50943;51.448;7.646;2023-04-21T00:01:46;33.50;;;18.77;;
5831;SDS011;50943;51.448;7.646;2023-04-21T00:04:13;38.97;;;21.50;;
5831;SDS011;50943;51.448;7.646;2023-04-21T00:06:41;37.73;;;20.80;;
5831;SDS011;50943;51.448;7.646;2023-04-21T00:09:08;37.27;;;20.53;;
5831;SDS011;50943;51.448;7.646;2023-04-21T00:11:36;39.90;;;20.20;;
5831;SDS011;50943;51.448;7.646;2023-04-21T00:14:03;33.80;;;19.00;;
5831;SDS011;50943;51.448;7.646;2023-04-21T00:16:29;32.17;;;18.00;;
5831;SDS011;50943;51.448;7.646;2023-04-21T00:18:56;33.50;;;19.17;;
5831;SDS011;50943;51.448;7.646;2023-04-21T00:21:23;37.53;;;20.50;;
5831;SDS011;50943;51.448;7.646;2023-04-21T00:23:50;34.33;;;19.90;;
5831;SDS011;50943;51.448;7.646;2023-04-21T00:26:17;32.37;;;19.10;;
5831;SDS011;50943;51.448;7.646;2023-04-21T00:28:46;35.27;;;20.90;;
5831;SDS011;50943;51.448;7.646;2023-04-21T00:31:12;37.03;;;19.53;;
5831;SDS011;50943;51.448;7.646;2023-04-21T00:33:39;38.03;;;21.27;;
5831;SDS011;50943;51.448;7.646;2023-04-21T00:36:06;37.37;;;21.80;;
5831;SDS011;50943;51.448;7.646;2023-04-21T00:38:32;41.30;;;20.57;;
5831;SDS011;50943;51.448;7.646;2023-04-21T00:40:59;34.87;;;20.60;;
5831;SDS011;50943;51.448;7.646;2023-04-21T00:43:26;38.70;;;19.40;;
5831;SDS011;50943;51.448;7.646;2023-04-21T00:45:54;36.60;;;21.17;;
5831;SDS011;50943;51.448;7.646;2023-04-21T00:48:20;38.10;;;20.90;;
5831;SDS011;50943;51.448;7.646;2023-04-21T00:50:47;37.47;;;22.00;;
5831;SDS011;50943;51.448;7.646;2023-04-21T00:53:13;40.50;;;21.23;;
5831;SDS011;50943;51.448;7.646;2023-04-21T00:55:40;45.90;;;22.37;;
5831;SDS011;50943;51.448;7.646;2023-04-21T00:58:07;38.33;;;21.07;;
5831;SDS011;50943;51.448;7.646;2023-04-21T01:00:34;50.20;;;23.10;;
5831;SDS011;50943;51.448;7.646;2023-04-21T01:03:02;44.47;;;22.83;;
5831;SDS011;50943;51.448;7.646;2023-04-21T01:05:29;50.80;;;23.10;;
5831;SDS011;50943;51.448;7.646;2023-04-21T01:07:57;39.20;;;21.53;;
5831;SDS011;50943;51.448;7.646;2023-04-21T01:10:24;41.30;;;21.60;;
5831;SDS011;50943;51.448;7.646;2023-04-21T01:12:50;38.67;;;21.13;;
5831;SDS011;50943;51.448;7.646;2023-04-21T01:15:17;33.47;;;20.17;;
5831;SDS011;50943;51.448;7.646;2023-04-21T01:17:43;38.80;;;21.50;;
5831;SDS011;50943;51.448;7.646;2023-04-21T01:20:12;43.20;;;22.60;;
5831;SDS011;50943;51.448;7.646;2023-04-21T01:22:41;41.13;;;22.27;;
5831;SDS011;50943;51.448;7.646;2023-04-21T01:25:09;46.63;;;23.17;;
5831;SDS011;50943;51.448;7.646;2023-04-21T01:27:37;49.50;;;23.53;;
5831;SDS011;50943;51.448;7.646;2023-04-21T01:30:06;40.13;;;21.37;;
5831;SDS011;50943;51.448;7.646;2023-04-21T01:32:34;48.73;;;22.53;;
5831;SDS011;50943;51.448;7.646;2023-04-21T01:35:00;44.00;;;22.40;;
5831;SDS011;50943;51.448;7.646;2023-04-21T01:37:28;44.63;;;23.10;;
5831;SDS011;50943;51.448;7.646;2023-04-21T01:39:59;50.57;;;23.50;;
5831;SDS011;50943;51.448;7.646;2023-04-21T01:42:29;40.20;;;22.03;;
5831;SDS011;50943;51.448;7.646;2023-04-21T01:44:56;47.33;;;24.33;;
5831;SDS011;50943;51.448;7.646;2023-04-21T01:47:23;48.73;;;23.73;;
5831;SDS011;50943;51.448;7.646;2023-04-21T01:49:50;42.57;;;21.93;;
5831;SDS011;50943;51.448;7.646;2023-04-21T01:52:17;46.93;;;23.80;;
5831;SDS011;50943;51.448;7.646;2023-04-21T01:54:43;45.60;;;25.10;;
5831;SDS011;50943;51.448;7.646;2023-04-21T01:57:11;49.33;;;23.53;;
5831;SDS011;50943;51.448;7.646;2023-04-21T01:59:38;51.90;;;24.83;;
5831;SDS011;50943;51.448;7.646;2023-04-21T02:02:04;47.30;;;23.83;;
5831;SDS011;50943;51.448;7.646;2023-04-21T02:04:31;51.20;;;25.67;;
5831;SDS011;50943;51.448;7.646;2023-04-21T02:06:58;54.50;;;25.80;;
5831;SDS011;50943;51.448;7.646;2023-04-21T02:09:25;55.30;;;25.37;;
5831;SDS011;50943;51.448;7.646;2023-04-21T02:11:51;51.23;;;24.43;;
5831;SDS011;50943;51.448;7.646;2023-04-21T02:14:19;51.13;;;25.73;;
5831;SDS011;50943;51.448;7.646;2023-04-21T02:16:46;55.17;;;25.37;;
5831;SDS011;50943;51.448;7.646;2023-04-21T02:19:12;55.10;;;25.33;;
5831;SDS011;50943;51.448;7.646;2023-04-21T02:21:39;61.60;;;26.83;;
5831;SDS011;50943;51.448;7.646;2023-04-21T02:24:06;44.83;;;22.43;;
5831;SDS011;50943;51.448;7.646;2023-04-21T02:26:33;56.27;;;26.20;;
5831;SDS011;50943;51.448;7.646;2023-04-21T02:28:59;53.40;;;24.60;;
5831;SDS011;50943;51.448;7.646;2023-04-21T02:31:28;58.87;;;26.30;;
5831;SDS011;50943;51.448;7.646;2023-04-21T02:33:54;49.90;;;24.20;;
5831;SDS011;50943;51.448;7.646;2023-04-21T02:36:21;51.07;;;23.40;;
5831;SDS011;50943;51.448;7.646;2023-04-21T02:38:48;52.60;;;25.70;;
5831;SDS011;50943;51.448;7.646;2023-04-21T02:41:15;54.93;;;25.20;;
5831;SDS011;50943;51.448;7.646;2023-04-21T02:43:41;56.37;;;25.80;;
5831;SDS011;50943;51.448;7.646;2023-04-21T02:46:08;51.70;;;25.00;;
5831;SDS011;50943;51.448;7.646;2023-04-21T02:48:36;55.70;;;25.80;;
5831;SDS011;50943;51.448;7.646;2023-04-21T02:51:02;53.00;;;25.97;;
5831;SDS011;50943;51.448;7.646;2023-04-21T02:53:29;58.50;;;26.03;;
5831;SDS011;50943;51.448;7.646;2023-04-21T02:55:56;52.23;;;26.20;;
5831;SDS011;50943;51.448;7.646;2023-04-21T02:58:22;69.50;;;31.90;;
5831;SDS011;50943;51.448;7.646;2023-04-21T03:00:51;60.07;;;28.40;;
5831;SDS011;50943;51.448;7.646;2023-04-21T03:03:18;54.47;;;28.60;;
5831;SDS011;50943;51.448;7.646;2023-04-21T03:05:46;55.50;;;25.50;;
5831;SDS011;50943;51.448;7.646;2023-04-21T03:08:12;61.67;;;27.97;;
5831;SDS011;50943;51.448;7.646;2023-04-21T03:10:39;60.40;;;26.77;;
5831;SDS011;50943;51.448;7.646;2023-04-21T03:13:06;53.57;;;26.10;;
5831;SDS011;50943;51.448;7.646;2023-04-21T03:15:33;49.47;;;24.63;;
5831;SDS011;50943;51.448;7.646;2023-04-21T03:17:59;54.40;;;26.00;;
5831;SDS011;50943;51.448;7.646;2023-04-21T03:20:26;50.67;;;24.90;;
5831;SDS011;50943;51.448;7.646;2023-04-21T03:22:54;53.03;;;24.40;;
5831;SDS011;50943;51.448;7.646;2023-04-21T03:25:21;52.40;;;24.50;;
5831;SDS011;50943;51.448;7.646;2023-04-21T03:27:48;50.20;;;24.43;;
5831;SDS011;50943;51.448;7.646;2023-04-21T03:30:19;48.63;;;24.93;;
5831;SDS011;50943;51.448;7.646;2023-04-21T03:32:45;50.27;;;25.40;;
5831;SDS011;50943;51.448;7.646;2023-04-21T03:35:12;53.50;;;26.10;;
5831;SDS011;50943;51.448;7.646;2023-04-21T03:37:38;45.47;;;24.27;;
5831;SDS011;50943;51.448;7.646;2023-04-21T03:40:07;52.70;;;25.50;;
5831;SDS011;50943;51.448;7.646;2023-04-21T03:42:34;50.07;;;23.60;;
5831;SDS011;50943;51.448;7.646;2023-04-21T03:45:01;51.13;;;26.27;;
5831;SDS011;50943;51.448;7.646;2023-04-21T03:47:28;52.43;;;25.90;;
5831;SDS011;50943;51.448;7.646;2023-04-21T03:49:57;51.30;;;26.87;;
5831;SDS011;50943;51.448;7.646;2023-04-21T03:52:23;59.67;;;25.87;;
5831;SDS011;50943;51.448;7.646;2023-04-21T03:54:50;50.37;;;25.60;;
5831;SDS011;50943;51.448;7.646;2023-04-21T03:57:18;53.70;;;25.53;;
5831;SDS011;50943;51.448;7.646;2023-04-21T03:59:45;48.30;;;24.23;;
5831;SDS011;50943;51.448;7.646;2023-04-21T04:02:12;57.43;;;25.60;;
5831;SDS011;50943;51.448;7.646;2023-04-21T04:04:38;52.30;;;26.10;;
5831;SDS011;50943;51.448;7.646;2023-04-21T04:07:05;44.57;;;22.20;;
5831;SDS011;50943;51.448;7.646;2023-04-21T04:09:34;40.73;;;23.30;;
5831;SDS011;50943;51.448;7.646;2023-04-21T04:12:00;45.20;;;23.77;;
5831;SDS011;50943;51.448;7.646;2023-04-21T04:14:29;49.27;;;24.50;;
5831;SDS011;50943;51.448;7.646;2023-04-21T04:16:57;51.50;;;27.03;;
5831;SDS011;50943;51.448;7.646;2023-04-21T04:19:28;50.93;;;26.70;;
5831;SDS011;50943;51.448;7.646;2023-04-21T04:21:56;48.10;;;25.00;;
5831;SDS011;50943;51.448;7.646;2023-04-21T04:24:23;49.60;;;26.33;;
5831;SDS011;50943;51.448;7.646;2023-04-21T04:26:50;60.53;;;27.93;;
5831;SDS011;50943;51.448;7.646;2023-04-21T04:29:18;54.40;;;27.30;;
5831;SDS011;50943;51.448;7.646;2023-04-21T04:31:47;62.50;;;28.30;;
5831;SDS011;50943;51.448;7.646;2023-04-21T04:34:14;54.47;;;27.47;;
5831;SDS011;50943;51.448;7.646;2023-04-21T04:36:41;50.43;;;25.97;;
5831;SDS011;50943;51.448;7.646;2023-04-21T04:39:08;53.83;;;26.30;;
5831;SDS011;50943;51.448;7.646;2023-04-21T04:41:36;54.17;;;25.73;;
5831;SDS011;50943;51.448;7.646;2023-04-21T04:44:03;49.37;;;25.67;;
5831;SDS011;50943;51.448;7.646;2023-04-21T04:46:30;51.37;;;24.07;;
5831;SDS011;50943;51.448;7.646;2023-04-21T04:48:58;47.57;;;24.37;;
5831;SDS011;50943;51.448;7.646;2023-04-21T04:51:25;43.40;;;23.10;;
5831;SDS011;50943;51.448;7.646;2023-04-21T04:53:51;52.40;;;25.60;;
5831;SDS011;50943;51.448;7.646;2023-04-21T04:56:18;47.27;;;25.00;;
5831;SDS011;50943;51.448;7.646;2023-04-21T04:58:44;49.90;;;25.13;;
5831;SDS011;50943;51.448;7.646;2023-04-21T05:01:11;50.80;;;26.90;;
5831;SDS011;50943;51.448;7.646;2023-04-21T05:03:38;57.30;;;27.07;;
5831;SDS011;50943;51.448;7.646;2023-04-21T05:06:06;59.43;;;27.60;;
5831;SDS011;50943;51.448;7.646;2023-04-21T05:08:33;53.73;;;25.33;;
5831;SDS011;50943;51.448;7.646;2023-04-21T05:11:00;67.60;;;27.10;;
5831;SDS011;50943;51.448;7.646;2023-04-21T05:13:27;60.40;;;28.63;;
5831;SDS011;50943;51.448;7.646;2023-04-21T05:15:55;61.40;;;28.57;;
5831;SDS011;50943;51.448;7.646;2023-04-21T05:18:22;57.87;;;27.83;;
5831;SDS011;50943;51.448;7.646;2023-04-21T05:20:49;56.63;;;28.00;;
5831;SDS011;50943;51.448;7.646;2023-04-21T05:23:17;61.10;;;29.70;;
5831;SDS011;50943;51.448;7.646;2023-04-21T05:25:44;64.60;;;27.27;;
5831;SDS011;50943;51.448;7.646;2023-04-21T05:28:11;54.10;;;28.00;;
5831;SDS011;50943;51.448;7.646;2023-04-21T05:30:37;56.43;;;27.37;;
5831;SDS011;50943;51.448;7.646;2023-04-21T05:33:04;60.70;;;28.37;;
5831;SDS011;50943;51.448;7.646;2023-04-21T05:35:31;57.73;;;28.80;;
5831;SDS011;50943;51.448;7.646;2023-04-21T05:37:57;58.87;;;29.90;;
5831;SDS011;50943;51.448;7.646;2023-04-21T05:40:25;60.23;;;28.30;;
5831;SDS011;50943;51.448;7.646;2023-04-21T05:42:52;58.33;;;29.80;;
5831;SDS011;50943;51.448;7.646;2023-04-21T05:45:19;67.77;;;31.00;;
5831;SDS011;50943;51.448;7.646;2023-04-21T05:47:45;65.33;;;30.60;;
5831;SDS011;50943;51.448;7.646;2023-04-21T05:50:12;63.63;;;29.30;;
5831;SDS011;50943;51.448;7.646;2023-04-21T05:52:38;63.93;;;29.77;;
5831;SDS011;50943;51.448;7.646;2023-04-21T05:55:05;64.30;;;29.97;;
5831;SDS011;50943;51.448;7.646;2023-04-21T05:57:35;73.37;;;33.63;;
5831;SDS011;50943;51.448;7.646;2023-04-21T06:00:01;61.17;;;28.53;;
5831;SDS011;50943;51.448;7.646;2023-04-21T06:02:29;73.17;;;32.50;;
5831;SDS011;50943;51.448;7.646;2023-04-21T06:04:56;71.63;;;31.70;;
5831;SDS011;50943;51.448;7.646;2023-04-21T06:07:23;71.50;;;32.40;;
5831;SDS011;50943;51.448;7.646;2023-04-21T06:09:49;63.40;;;30.40;;
5831;SDS011;50943;51.448;7.646;2023-04-21T06:12:16;64.87;;;30.33;;
5831;SDS011;50943;51.448;7.646;2023-04-21T06:14:44;62.43;;;29.63;;
5831;SDS011;50943;51.448;7.646;2023-04-21T06:17:14;64.50;;;30.57;;
5831;SDS011;50943;51.448;7.646;2023-04-21T06:19:41;67.20;;;30.93;;
5831;SDS011;50943;51.448;7.646;2023-04-21T06:22:08;65.60;;;31.80;;
5831;SDS011;50943;51.448;7.646;2023-04-21T06:24:35;61.00;;;29.53;;
5831;SDS011;50943;51.448;7.646;2023-04-21T06:27:01;56.23;;;29.03;;
5831;SDS011;50943;51.448;7.646;2023-04-21T06:29:28;54.33;;;30.70;;
5831;SDS011;50943;51.448;7.646;2023-04-21T06:31:56;59.03;;;29.73;;
5831;SDS011;50943;51.448;7.646;2023-04-21T06:34:22;60.13;;;29.90;;
5831;SDS011;50943;51.448;7.646;2023-04-21T06:36:49;55.53;;;28.97;;
5831;SDS011;50943;51.448;7.646;2023-04-21T06:39:16;49.40;;;28.03;;
5831;SDS011;50943;51.448;7.646;2023-04-21T06:41:44;54.97;;;31.53;;
5831;SDS011;50943;51.448;7.646;2023-04-21T06:44:11;51.40;;;28.40;;
5831;SDS011;50943;51.448;7.646;2023-04-21T06:46:39;56.33;;;31.40;;
5831;SDS011;50943;51.448;7.646;2023-04-21T06:49:07;54.87;;;30.00;;
5831;SDS011;50943;51.448;7.646;2023-04-21T06:51:33;52.30;;;28.17;;
5831;SDS011;50943;51.448;7.646;2023-04-21T06:54:01;53.50;;;29.20;;
5831;SDS011;50943;51.448;7.646;2023-04-21T06:56:28;55.43;;;30.13;;
5831;SDS011;50943;51.448;7.646;2023-04-21T06:58:57;51.60;;;28.40;;
5831;SDS011;50943;51.448;7.646;2023-04-21T07:01:25;55.80;;;29.10;;
5831;SDS011;50943;51.448;7.646;2023-04-21T07:03:51;52.93;;;30.00;;
5831;SDS011;50943;51.448;7.646;2023-04-21T07:06:19;51.80;;;29.27;;
5831;SDS011;50943;51.448;7.646;2023-04-21T07:08:46;48.43;;;28.20;;
5831;SDS011;50943;51.448;7.646;2023-04-21T07:11:13;52.13;;;29.37;;
5831;SDS011;50943;51.448;7.646;2023-04-21T07:13:39;51.80;;;29.00;;
5831;SDS011;50943;51.448;7.646;2023-04-21T07:16:06;55.27;;;29.90;;
5831;SDS011;50943;51.448;7.646;2023-04-21T07:18:32;49.30;;;27.50;;
5831;SDS011;50943;51.448;7.646;2023-04-21T07:20:59;60.77;;;30.43;;
5831;SDS011;50943;51.448;7.646;2023-04-21T07:23:27;53.30;;;28.50;;
5831;SDS011;50943;51.448;7.646;2023-04-21T07:25:54;56.60;;;30.23;;
5831;SDS011;50943;51.448;7.646;2023-04-21T07:28:21;53.57;;;30.60;;
5831;SDS011;50943;51.448;7.646;2023-04-21T07:30:48;53.90;;;29.87;;
5831;SDS011;50943;51.448;7.646;2023-04-21T07:33:15;51.27;;;27.77;;
5831;SDS011;50943;51.448;7.646;2023-04-21T07:35:41;53.00;;;28.53;;
5831;SDS011;50943;51.448;7.646;2023-04-21T07:38:08;49.43;;;29.27;;
5831;SDS011;50943;51.448;7.646;2023-04-21T07:40:36;48.63;;;28.33;;
5831;SDS011;50943;51.448;7.646;2023-04-21T07:43:03;43.93;;;27.87;;
5831;SDS011;50943;51.448;7.646;2023-04-21T07:45:30;53.30;;;30.77;;
5831;SDS011;50943;51.448;7.646;2023-04-21T07:47:56;50.47;;;29.97;;
5831;SDS011;50943;51.448;7.646;2023-04-21T07:50:23;49.07;;;27.80;;
5831;SDS011;50943;51.448;7.646;2023-04-21T07:52:50;40.83;;;26.10;;
5831;SDS011;50943;51.448;7.646;2023-04-21T07:55:17;42.60;;;25.43;;
5831;SDS011;50943;51.448;7.646;2023-04-21T07:57:45;44.53;;;26.87;;
5831;SDS011;50943;51.448;7.646;2023-04-21T08:00:12;51.73;;;27.77;;
5831;SDS011;50943;51.448;7.646;2023-04-21T08:02:39;43.00;;;27.17;;
5831;SDS011;50943;51.448;7.646;2023-04-21T08:05:06;51.90;;;28.63;;
5831;SDS011;50943;51.448;7.646;2023-04-21T08:07:33;52.27;;;28.53;;
5831;SDS011;50943;51.448;7.646;2023-04-21T08:10:02;49.30;;;28.60;;
5831;SDS011;50943;51.448;7.646;2023-04-21T08:12:30;52.20;;;30.77;;
5831;SDS011;50943;51.448;7.646;2023-04-21T08:14:57;50.37;;;27.37;;
5831;SDS011;50943;51.448;7.646;2023-04-21T08:17:29;51.50;;;27.07;;
5831;SDS011;50943;51.448;7.646;2023-04-21T08:19:56;53.43;;;29.00;;
5831;SDS011;50943;51.448;7.646;2023-04-21T08:22:23;47.83;;;28.63;;
5831;SDS011;50943;51.448;7.646;2023-04-21T08:24:49;44.40;;;27.13;;
5831;SDS011;50943;51.448;7.646;2023-04-21T08:27:16;52.50;;;28.20;;
5831;SDS011;50943;51.448;7.646;2023-04-21T08:29:43;47.30;;;28.83;;
5831;SDS011;50943;51.448;7.646;2023-04-21T08:32:13;51.23;;;27.50;;
5831;SDS011;50943;51.448;7.646;2023-04-21T08:34:39;43.70;;;27.30;;
5831;SDS011;50943;51.448;7.646;2023-04-21T08:37:06;48.90;;;29.50;;
5831;SDS011;50943;51.448;7.646;2023-04-21T08:39:33;43.37;;;27.13;;
5831;SDS011;50943;51.448;7.646;2023-04-21T08:42:00;46.30;;;26.93;;
5831;SDS011;50943;51.448;7.646;2023-04-21T08:44:30;44.60;;;26.40;;
5831;SDS011;50943;51.448;7.646;2023-04-21T08:46:56;46.57;;;27.27;;
5831;SDS011;50943;51.448;7.646;2023-04-21T08:49:25;45.10;;;27.27;;
5831;SDS011;50943;51.448;7.646;2023-04-21T08:51:55;43.43;;;27.83;;
5831;SDS011;50943;51.448;7.646;2023-04-21T08:54:22;47.90;;;27.50;;
5831;SDS011;50943;51.448;7.646;2023-04-21T08:56:49;41.47;;;26.27;;
5831;SDS011;50943;51.448;7.646;2023-04-21T08:59:15;45.43;;;26.30;;
5831;SDS011;50943;51.448;7.646;2023-04-21T09:04:36;44.23;;;25.70;;
5831;SDS011;50943;51.448;7.646;2023-04-21T09:07:03;42.70;;;24.90;;
5831;SDS011;50943;51.448;7.646;2023-04-21T09:09:30;45.40;;;25.70;;
5831;SDS011;50943;51.448;7.646;2023-04-21T09:11:57;41.43;;;25.53;;
5831;SDS011;50943;51.448;7.646;2023-04-21T09:14:27;44.13;;;27.90;;
5831;SDS011;50943;51.448;7.646;2023-04-21T09:17:00;41.90;;;25.27;;
5831;SDS011;50943;51.448;7.646;2023-04-21T09:19:28;40.03;;;24.93;;
5831;SDS011;50943;51.448;7.646;2023-04-21T09:21:57;40.20;;;24.90;;
5831;SDS011;50943;51.448;7.646;2023-04-21T09:24:25;38.73;;;23.60;;
5831;SDS011;50943;51.448;7.646;2023-04-21T09:26:52;38.87;;;24.37;;
5831;SDS011;50943;51.448;7.646;2023-04-21T09:29:20;41.10;;;26.83;;
5831;SDS011;50943;51.448;7.646;2023-04-21T09:31:47;36.57;;;23.67;;
5831;SDS011;50943;51.448;7.646;2023-04-21T09:34:18;44.60;;;26.90;;
5831;SDS011;50943;51.448;7.646;2023-04-21T09:36:46;43.70;;;27.20;;
5831;SDS011;50943;51.448;7.646;2023-04-21T09:39:14;48.60;;;26.63;;
5831;SDS011;50943;51.448;7.646;2023-04-21T09:41:40;42.83;;;25.50;;
5831;SDS011;50943;51.448;7.646;2023-04-21T09:44:08;43.17;;;25.93;;
5831;SDS011;50943;51.448;7.646;2023-04-21T09:46:35;46.53;;;25.50;;
5831;SDS011;50943;51.448;7.646;2023-04-21T09:49:02;40.60;;;24.93;;
5831;SDS011;50943;51.448;7.646;2023-04-21T09:51:29;48.93;;;27.10;;
5831;SDS011;50943;51.448;7.646;2023-04-21T09:53:57;44.87;;;26.10;;
5831;SDS011;50943;51.448;7.646;2023-04-21T09:56:26;42.67;;;26.30;;
5831;SDS011;50943;51.448;7.646;2023-04-21T09:58:56;53.20;;;26.43;;
5831;SDS011;50943;51.448;7.646;2023-04-21T10:01:24;42.43;;;26.20;;
5831;SDS011;50943;51.448;7.646;2023-04-21T10:03:52;49.63;;;28.43;;
5831;SDS011;50943;51.448;7.646;2023-04-21T10:06:19;50.07;;;28.23;;
5831;SDS011;50943;51.448;7.646;2023-04-21T10:08:47;47.23;;;28.10;;
5831;SDS011;50943;51.448;7.646;2023-04-21T10:11:15;38.57;;;26.07;;
5831;SDS011;50943;51.448;7.646;2023-04-21T10:13:45;44.43;;;27.60;;
5831;SDS011;50943;51.448;7.646;2023-04-21T10:16:12;38.60;;;24.23;;
5831;SDS011;50943;51.448;7.646;2023-04-21T10:18:42;40.90;;;25.37;;
5831;SDS011;50943;51.448;7.646;2023-04-21T10:21:10;36.10;;;23.07;;
5831;SDS011;50943;51.448;7.646;2023-04-21T10:23:38;27.47;;;18.40;;
5831;SDS011;50943;51.448;7.646;2023-04-21T10:26:08;28.50;;;17.33;;
5831;SDS011;50943;51.448;7.646;2023-04-21T10:28:47;25.43;;;17.80;;
5831;SDS011;50943;51.448;7.646;2023-04-21T10:31:18;28.23;;;18.03;;
5831;SDS011;50943;51.448;7.646;2023-04-21T10:36:43;24.73;;;18.10;;
5831;SDS011;50943;51.448;7.646;2023-04-21T10:39:23;27.07;;;18.67;;
5831;SDS011;50943;51.448;7.646;2023-04-21T10:41:53;24.87;;;18.50;;
5831;SDS011;50943;51.448;7.646;2023-04-21T10:44:23;27.13;;;18.17;;
5831;SDS011;50943;51.448;7.646;2023-04-21T10:46:50;29.13;;;19.27;;
5831;SDS011;50943;51.448;7.646;2023-04-21T10:49:21;32.87;;;20.67;;
5831;SDS011;50943;51.448;7.646;2023-04-21T10:52:05;32.50;;;20.40;;
5831;SDS011;50943;51.448;7.646;2023-04-21T10:54:36;31.03;;;21.03;;
5831;SDS011;50943;51.448;7.646;2023-04-21T10:57:07;28.23;;;19.50;;
5831;SDS011;50943;51.448;7.646;2023-04-21T10:59:36;28.90;;;20.97;;
5831;SDS011;50943;51.448;7.646;2023-04-21T11:02:04;29.27;;;18.87;;
5831;SDS011;50943;51.448;7.646;2023-04-21T11:04:31;28.60;;;19.87;;
5831;SDS011;50943;51.448;7.646;2023-04-21T11:07:04;30.73;;;20.03;;
5831;SDS011;50943;51.448;7.646;2023-04-21T11:09:32;30.57;;;21.00;;
5831;SDS011;50943;51.448;7.646;2023-04-21T11:11:58;30.90;;;20.53;;
5831;SDS011;50943;51.448;7.646;2023-04-21T11:14:28;32.33;;;20.57;;
5831;SDS011;50943;51.448;7.646;2023-04-21T11:16:57;26.60;;;19.23;;
5831;SDS011;50943;51.448;7.646;2023-04-21T11:19:23;28.70;;;20.37;;
5831;SDS011;50943;51.448;7.646;2023-04-21T11:21:50;26.40;;;18.07;;
5831;SDS011;50943;51.448;7.646;2023-04-21T11:24:19;28.03;;;19.30;;
5831;SDS011;50943;51.448;7.646;2023-04-21T11:26:46;31.13;;;19.90;;
5831;SDS011;50943;51.448;7.646;2023-04-21T11:29:14;26.80;;;18.30;;
5831;SDS011;50943;51.448;7.646;2023-04-21T11:31:41;30.23;;;18.70;;
5831;SDS011;50943;51.448;7.646;2023-04-21T11:34:10;31.10;;;19.77;;
5831;SDS011;50943;51.448;7.646;2023-04-21T11:36:38;26.67;;;17.90;;
5831;SDS011;50943;51.448;7.646;2023-04-21T11:39:05;29.07;;;18.17;;
5831;SDS011;50943;51.448;7.646;2023-04-21T11:41:35;36.40;;;19.13;;
5831;SDS011;50943;51.448;7.646;2023-04-21T11:44:04;25.93;;;17.73;;
5831;SDS011;50943;51.448;7.646;2023-04-21T11:46:31;27.67;;;17.83;;
5831;SDS011;50943;51.448;7.646;2023-04-21T11:49:00;27.60;;;17.63;;
5831;SDS011;50943;51.448;7.646;2023-04-21T11:51:34;26.03;;;18.70;;
5831;SDS011;50943;51.448;7.646;2023-04-21T11:54:03;23.67;;;17.10;;
5831;SDS011;50943;51.448;7.646;2023-04-21T11:56:33;26.57;;;18.47;;
5831;SDS011;50943;51.448;7.646;2023-04-21T11:59:04;24.13;;;17.27;;
5831;SDS011;50943;51.448;7.646;2023-04-21T12:01:31;28.00;;;17.47;;
5831;SDS011;50943;51.448;7.646;2023-04-21T12:03:58;26.90;;;17.40;;
5831;SDS011;50943;51.448;7.646;2023-04-21T12:06:25;23.77;;;16.63;;
5831;SDS011;50943;51.448;7.646;2023-04-21T12:08:55;24.77;;;16.90;;
5831;SDS011;50943;51.448;7.646;2023-04-21T12:11:23;29.03;;;18.23;;
5831;SDS011;50943;51.448;7.646;2023-04-21T12:13:50;23.13;;;16.50;;
5831;SDS011;50943;51.448;7.646;2023-04-21T12:16:17;21.60;;;15.87;;
5831;SDS011;50943;51.448;7.646;2023-04-21T12:18:44;24.47;;;16.00;;
5831;SDS011;50943;51.448;7.646;2023-04-21T12:21:13;22.90;;;16.70;;
5831;SDS011;50943;51.448;7.646;2023-04-21T12:23:40;22.13;;;15.90;;
5831;SDS011;50943;51.448;7.646;2023-04-21T12:26:10;28.57;;;17.33;;
5831;SDS011;50943;51.448;7.646;2023-04-21T12:28:36;29.00;;;16.73;;
5831;SDS011;50943;51.448;7.646;2023-04-21T12:31:03;25.67;;;15.97;;
5831;SDS011;50943;51.448;7.646;2023-04-21T12:33:30;22.80;;;15.87;;
5831;SDS011;50943;51.448;7.646;2023-04-21T12:35:57;22.60;;;15.10;;
5831;SDS011;50943;51.448;7.646;2023-04-21T12:38:24;23.23;;;15.53;;
5831;SDS011;50943;51.448;7.646;2023-04-21T12:40:50;23.00;;;15.20;;
5831;SDS011;50943;51.448;7.646;2023-04-21T12:43:18;20.30;;;14.63;;
5831;SDS011;50943;51.448;7.646;2023-04-21T12:45:45;20.37;;;14.90;;
5831;SDS011;50943;51.448;7.646;2023-04-21T12:48:11;22.50;;;15.00;;
5831;SDS011;50943;51.448;7.646;2023-04-21T12:50:38;24.73;;;15.93;;
5831;SDS011;50943;51.448;7.646;2023-04-21T12:53:04;20.90;;;15.07;;
5831;SDS011;50943;51.448;7.646;2023-04-21T12:55:33;23.70;;;15.57;;
5831;SDS011;50943;51.448;7.646;2023-04-21T12:58:00;20.63;;;14.07;;
5831;SDS011;50943;51.448;7.646;2023-04-21T13:00:28;19.53;;;13.63;;
5831;SDS011;50943;51.448;7.646;2023-04-21T13:02:54;20.73;;;12.70;;
5831;SDS011;50943;51.448;7.646;2023-04-21T13:05:21;18.97;;;14.00;;
5831;SDS011;50943;51.448;7.646;2023-04-21T13:07:48;17.40;;;13.87;;
5831;SDS011;50943;51.448;7.646;2023-04-21T13:10:14;20.50;;;13.40;;
5831;SDS011;50943;51.448;7.646;2023-04-21T13:12:42;20.03;;;13.53;;
5831;SDS011;50943;51.448;7.646;2023-04-21T13:15:09;20.33;;;13.40;;
5831;SDS011;50943;51.448;7.646;2023-04-21T13:17:38;16.70;;;13.13;;
5831;SDS011;50943;51.448;7.646;2023-04-21T13:20:05;15.40;;;12.60;;
5831;SDS011;50943;51.448;7.646;2023-04-21T13:22:32;16.87;;;12.80;;
5831;SDS011;50943;51.448;7.646;2023-04-21T13:24:59;18.37;;;13.33;;
5831;SDS011;50943;51.448;7.646;2023-04-21T13:27:26;14.97;;;12.00;;
5831;SDS011;50943;51.448;7.646;2023-04-21T13:29:53;20.57;;;14.20;;
5831;SDS011;50943;51.448;7.646;2023-04-21T13:32:20;15.83;;;12.53;;
5831;SDS011;50943;51.448;7.646;2023-04-21T13:34:48;17.97;;;12.80;;
5831;SDS011;50943;51.448;7.646;2023-04-21T13:37:14;20.30;;;12.90;;
5831;SDS011;50943;51.448;7.646;2023-04-21T13:39:41;14.47;;;12.10;;
5831;SDS011;50943;51.448;7.646;2023-04-21T13:42:08;15.80;;;12.43;;
5831;SDS011;50943;51.448;7.646;2023-04-21T13:44:34;15.07;;;11.60;;
5831;SDS011;50943;51.448;7.646;2023-04-21T13:47:01;14.60;;;12.10;;
5831;SDS011;50943;51.448;7.646;2023-04-21T13:49:27;14.50;;;11.33;;
5831;SDS011;50943;51.448;7.646;2023-04-21T13:51:55;15.50;;;10.40;;
5831;SDS011;50943;51.448;7.646;2023-04-21T13:54:22;13.20;;;10.53;;
5831;SDS011;50943;51.448;7.646;2023-04-21T13:56:49;14.53;;;10.93;;
5831;SDS011;50943;51.448;7.646;2023-04-21T13:59:16;20.53;;;11.30;;
5831;SDS011;50943;51.448;7.646;2023-04-21T14:01:45;16.50;;;12.43;;
5831;SDS011;50943;51.448;7.646;2023-04-21T14:04:11;17.53;;;12.83;;
5831;SDS011;50943;51.448;7.646;2023-04-21T14:06:38;20.80;;;12.67;;
5831;SDS011;50943;51.448;7.646;2023-04-21T14:09:06;16.27;;;11.83;;
5831;SDS011;50943;51.448;7.646;2023-04-21T14:11:33;17.97;;;13.43;;
5831;SDS011;50943;51.448;7.646;2023-04-21T14:14:00;18.60;;;13.40;;
5831;SDS011;50943;51.448;7.646;2023-04-21T14:16:26;18.83;;;14.07;;
5831;SDS011;50943;51.448;7.646;2023-04-21T14:18:53;19.63;;;13.40;;
5831;SDS011;50943;51.448;7.646;2023-04-21T14:21:19;21.83;;;15.13;;
5831;SDS011;50943;51.448;7.646;2023-04-21T14:23:46;18.27;;;13.07;;
5831;SDS011;50943;51.448;7.646;2023-04-21T14:26:14;16.70;;;13.03;;
5831;SDS011;50943;51.448;7.646;2023-04-21T14:28:40;19.53;;;13.80;;
5831;SDS011;50943;51.448;7.646;2023-04-21T14:31:07;16.10;;;11.30;;
5831;SDS011;50943;51.448;7.646;2023-04-21T14:33:34;17.43;;;11.97;;
5831;SDS011;50943;51.448;7.646;2023-04-21T14:36:00;15.43;;;11.60;;
5831;SDS011;50943;51.448;7.646;2023-04-21T14:38:29;16.07;;;11.60;;
5831;SDS011;50943;51.448;7.646;2023-04-21T14:40:56;16.43;;;10.83;;